Airfield :
LOGIN :

Register | Disclaimer

   EN    FR    IT 

 










Legend :    VFR   Marginal VFR   IFR   Intensive IFR   Very Intensive IFR
Visi :
Ceiling :
>= 8 km
>= 3000ft
5 to 8 km
1000 to 3000 ft
1500m to 5 km
500 to 1000 ft
800 to 1500m
200 to 500 ft
< 800m
< 200 ft
Symbols :   Thunderstorms  Fog  Heavy snow  Heavy precipitations  Wind > 20 kt
SIGMETs :     Misc.  Thunderstorms  Icing  Turbulence  Mountain Waves  Volcanic Ashes






- Airport Elevation : 39 ft
- IATA code : CTA


LICC - Catania Fontanarossa

CURRENT METAR :
  • 271750Z VRB01KT CAVOK 13/09 Q1022

EXPIRED METARs :
  • 271720Z VRB02KT CAVOK 14/10 Q1022
  • 271650Z VRB02KT CAVOK 14/09 Q1021
  • 271620Z 12003KT 070V160 CAVOK 14/08 Q1021
  • 271550Z 15005KT 130V190 CAVOK 16/09 Q1021
  • 271520Z 14006KT CAVOK 16/09 Q1021

TAF TAF LICC
Valid from the 27 at 18:00 until the 28 at 18:00 UTC


271700Z 2718/2818 25008KT 9999 SCT030



MET'MAP, your aeronautical weather chart ! - Copyright ORBIFLY December 2007 - Disclaimer

ORBIFLY MET'MAP TEAM :

Programming & Development : Alexandra Zaïnal
Concept & original design : Baudouin d'Aumeries
Assistance for programming : Marc-Olivier Méhu
Technical & hardware support : Manuel Goepfert

Contact : metmap@orbifly.com




SOURCES & CREDITS :

   NOAA